Terminal Aerodrome Forecast
Issued by NWS

Home | Current Version | Previous Version | Text Only | Print | Product List | Glossary On
Versions: 1 2 3 4 5 6 7 8 9 10 11 12 13 14 15 16 17
000
FTUS41 KGYX 140900 AAA
TAFAUG
TAF AMD
KAUG 140921Z 1409/1506 19010KT 5SM BR OVC003
     FM141300 23008KT P6SM SCT050
     FM141800 18010KT P6SM BKN050=

USA.gov is the U.S. government's official web portal to all federal, state and local government web resources and services.